sensor_id;sensor_type;location;lat;lon;timestamp;P1;durP1;ratioP1;P2;durP2;ratioP2
69401;SDS011;56589;51.992;5.924;2023-02-18T00:02:22;39.40;;;20.50;;
69401;SDS011;56589;51.992;5.924;2023-02-18T00:04:48;53.92;;;19.90;;
69401;SDS011;56589;51.992;5.924;2023-02-18T00:07:13;48.80;;;20.15;;
69401;SDS011;56589;51.992;5.924;2023-02-18T00:09:39;54.72;;;22.15;;
69401;SDS011;56589;51.992;5.924;2023-02-18T00:12:05;54.30;;;21.05;;
69401;SDS011;56589;51.992;5.924;2023-02-18T00:14:34;53.13;;;21.95;;
69401;SDS011;56589;51.992;5.924;2023-02-18T00:16:59;46.67;;;21.00;;
69401;SDS011;56589;51.992;5.924;2023-02-18T00:19:25;52.85;;;21.55;;
69401;SDS011;56589;51.992;5.924;2023-02-18T00:21:51;51.13;;;21.90;;
69401;SDS011;56589;51.992;5.924;2023-02-18T00:24:17;57.78;;;22.75;;
69401;SDS011;56589;51.992;5.924;2023-02-18T00:26:43;53.47;;;21.55;;
69401;SDS011;56589;51.992;5.924;2023-02-18T00:29:10;51.00;;;21.70;;
69401;SDS011;56589;51.992;5.924;2023-02-18T00:31:39;50.95;;;18.70;;
69401;SDS011;56589;51.992;5.924;2023-02-18T00:34:04;51.25;;;21.95;;
69401;SDS011;56589;51.992;5.924;2023-02-18T00:36:30;56.33;;;22.05;;
69401;SDS011;56589;51.992;5.924;2023-02-18T00:38:57;54.50;;;22.17;;
69401;SDS011;56589;51.992;5.924;2023-02-18T00:41:26;52.00;;;22.75;;
69401;SDS011;56589;51.992;5.924;2023-02-18T00:43:53;58.03;;;21.90;;
69401;SDS011;56589;51.992;5.924;2023-02-18T00:46:20;60.45;;;23.58;;
69401;SDS011;56589;51.992;5.924;2023-02-18T00:48:49;56.75;;;22.35;;
69401;SDS011;56589;51.992;5.924;2023-02-18T00:51:15;53.65;;;22.77;;
69401;SDS011;56589;51.992;5.924;2023-02-18T00:53:41;57.63;;;22.63;;
69401;SDS011;56589;51.992;5.924;2023-02-18T00:56:07;58.95;;;23.80;;
69401;SDS011;56589;51.992;5.924;2023-02-18T00:58:34;52.92;;;21.73;;
69401;SDS011;56589;51.992;5.924;2023-02-18T01:01:02;59.38;;;23.13;;
69401;SDS011;56589;51.992;5.924;2023-02-18T01:03:30;51.15;;;21.30;;
69401;SDS011;56589;51.992;5.924;2023-02-18T01:05:58;45.38;;;21.45;;
69401;SDS011;56589;51.992;5.924;2023-02-18T01:08:24;48.15;;;22.13;;
69401;SDS011;56589;51.992;5.924;2023-02-18T01:10:54;49.15;;;21.63;;
69401;SDS011;56589;51.992;5.924;2023-02-18T01:13:22;47.78;;;19.95;;
69401;SDS011;56589;51.992;5.924;2023-02-18T01:15:50;44.58;;;19.80;;
69401;SDS011;56589;51.992;5.924;2023-02-18T01:18:16;37.55;;;19.33;;
69401;SDS011;56589;51.992;5.924;2023-02-18T01:20:42;46.90;;;18.27;;
69401;SDS011;56589;51.992;5.924;2023-02-18T01:23:12;39.30;;;18.95;;
69401;SDS011;56589;51.992;5.924;2023-02-18T01:25:38;39.92;;;17.80;;
69401;SDS011;56589;51.992;5.924;2023-02-18T01:28:06;38.63;;;17.40;;
69401;SDS011;56589;51.992;5.924;2023-02-18T01:30:35;42.42;;;18.92;;
69401;SDS011;56589;51.992;5.924;2023-02-18T01:33:01;31.77;;;16.23;;
69401;SDS011;56589;51.992;5.924;2023-02-18T01:35:27;36.78;;;16.83;;
69401;SDS011;56589;51.992;5.924;2023-02-18T01:37:53;35.92;;;17.88;;
69401;SDS011;56589;51.992;5.924;2023-02-18T01:40:22;33.22;;;17.60;;
69401;SDS011;56589;51.992;5.924;2023-02-18T01:42:53;36.78;;;18.40;;
69401;SDS011;56589;51.992;5.924;2023-02-18T01:48:33;37.22;;;18.65;;
69401;SDS011;56589;51.992;5.924;2023-02-18T01:51:06;35.30;;;17.98;;
69401;SDS011;56589;51.992;5.924;2023-02-18T01:53:41;35.50;;;18.83;;
69401;SDS011;56589;51.992;5.924;2023-02-18T01:56:18;36.78;;;18.92;;
69401;SDS011;56589;51.992;5.924;2023-02-18T01:58:52;34.33;;;19.25;;
69401;SDS011;56589;51.992;5.924;2023-02-18T02:01:23;45.03;;;20.98;;
69401;SDS011;56589;51.992;5.924;2023-02-18T02:03:51;39.33;;;20.25;;
69401;SDS011;56589;51.992;5.924;2023-02-18T02:06:18;46.58;;;20.95;;
69401;SDS011;56589;51.992;5.924;2023-02-18T02:08:47;47.72;;;21.45;;
69401;SDS011;56589;51.992;5.924;2023-02-18T02:11:23;40.08;;;21.40;;
69401;SDS011;56589;51.992;5.924;2023-02-18T02:14:21;45.40;;;21.33;;
69401;SDS011;56589;51.992;5.924;2023-02-18T02:17:06;42.53;;;21.33;;
69401;SDS011;56589;51.992;5.924;2023-02-18T02:19:50;45.63;;;21.75;;
69401;SDS011;56589;51.992;5.924;2023-02-18T02:26:37;50.47;;;21.98;;
69401;SDS011;56589;51.992;5.924;2023-02-18T02:33:28;54.42;;;23.52;;
69401;SDS011;56589;51.992;5.924;2023-02-18T02:36:26;47.83;;;21.58;;
69401;SDS011;56589;51.992;5.924;2023-02-18T02:39:02;56.78;;;25.27;;
69401;SDS011;56589;51.992;5.924;2023-02-18T02:41:42;54.20;;;24.38;;
69401;SDS011;56589;51.992;5.924;2023-02-18T02:44:19;51.30;;;24.50;;
69401;SDS011;56589;51.992;5.924;2023-02-18T02:46:56;59.50;;;25.23;;
69401;SDS011;56589;51.992;5.924;2023-02-18T02:49:32;64.38;;;26.38;;
69401;SDS011;56589;51.992;5.924;2023-02-18T02:52:15;58.10;;;26.42;;
69401;SDS011;56589;51.992;5.924;2023-02-18T02:54:47;61.83;;;27.33;;
69401;SDS011;56589;51.992;5.924;2023-02-18T03:00:16;59.33;;;27.60;;
69401;SDS011;56589;51.992;5.924;2023-02-18T03:02:57;53.57;;;25.93;;
69401;SDS011;56589;51.992;5.924;2023-02-18T03:05:44;63.58;;;28.08;;
69401;SDS011;56589;51.992;5.924;2023-02-18T03:08:41;64.50;;;29.15;;
69401;SDS011;56589;51.992;5.924;2023-02-18T03:11:20;68.53;;;29.13;;
69401;SDS011;56589;51.992;5.924;2023-02-18T03:13:52;65.78;;;30.30;;
69401;SDS011;56589;51.992;5.924;2023-02-18T03:16:31;69.82;;;28.70;;
69401;SDS011;56589;51.992;5.924;2023-02-18T03:19:06;58.63;;;27.08;;
69401;SDS011;56589;51.992;5.924;2023-02-18T03:21:43;63.60;;;27.80;;
69401;SDS011;56589;51.992;5.924;2023-02-18T03:24:17;65.35;;;27.90;;
69401;SDS011;56589;51.992;5.924;2023-02-18T03:26:51;65.90;;;27.55;;
69401;SDS011;56589;51.992;5.924;2023-02-18T03:29:23;64.28;;;27.23;;
69401;SDS011;56589;51.992;5.924;2023-02-18T03:31:53;59.13;;;25.75;;
69401;SDS011;56589;51.992;5.924;2023-02-18T03:34:25;51.58;;;23.58;;
69401;SDS011;56589;51.992;5.924;2023-02-18T03:36:57;50.47;;;22.58;;
69401;SDS011;56589;51.992;5.924;2023-02-18T03:39:29;51.92;;;22.45;;
69401;SDS011;56589;51.992;5.924;2023-02-18T03:41:58;57.20;;;23.30;;
69401;SDS011;56589;51.992;5.924;2023-02-18T03:44:24;49.00;;;21.85;;
69401;SDS011;56589;51.992;5.924;2023-02-18T03:46:50;39.53;;;20.77;;
69401;SDS011;56589;51.992;5.924;2023-02-18T03:49:17;42.05;;;19.90;;
69401;SDS011;56589;51.992;5.924;2023-02-18T03:51:43;40.88;;;18.70;;
69401;SDS011;56589;51.992;5.924;2023-02-18T03:54:09;40.58;;;19.10;;
69401;SDS011;56589;51.992;5.924;2023-02-18T03:56:37;41.10;;;19.20;;
69401;SDS011;56589;51.992;5.924;2023-02-18T03:59:06;35.28;;;17.70;;
69401;SDS011;56589;51.992;5.924;2023-02-18T04:01:35;33.78;;;16.17;;
69401;SDS011;56589;51.992;5.924;2023-02-18T04:04:01;39.25;;;16.38;;
69401;SDS011;56589;51.992;5.924;2023-02-18T04:06:27;27.27;;;14.50;;
69401;SDS011;56589;51.992;5.924;2023-02-18T04:08:53;22.85;;;12.30;;
69401;SDS011;56589;51.992;5.924;2023-02-18T04:11:19;24.23;;;12.82;;
69401;SDS011;56589;51.992;5.924;2023-02-18T04:13:48;22.67;;;11.98;;
69401;SDS011;56589;51.992;5.924;2023-02-18T04:16:15;24.30;;;11.77;;
69401;SDS011;56589;51.992;5.924;2023-02-18T04:18:41;23.83;;;12.30;;
69401;SDS011;56589;51.992;5.924;2023-02-18T04:21:07;24.38;;;11.13;;
69401;SDS011;56589;51.992;5.924;2023-02-18T04:23:33;24.80;;;12.55;;
69401;SDS011;56589;51.992;5.924;2023-02-18T04:25:59;19.70;;;12.02;;
69401;SDS011;56589;51.992;5.924;2023-02-18T04:28:25;25.02;;;12.25;;
69401;SDS011;56589;51.992;5.924;2023-02-18T04:30:54;23.60;;;13.23;;
69401;SDS011;56589;51.992;5.924;2023-02-18T04:33:19;22.58;;;12.57;;
69401;SDS011;56589;51.992;5.924;2023-02-18T04:35:45;23.73;;;12.10;;
69401;SDS011;56589;51.992;5.924;2023-02-18T04:38:11;22.20;;;12.82;;
69401;SDS011;56589;51.992;5.924;2023-02-18T04:40:37;19.95;;;11.32;;
69401;SDS011;56589;51.992;5.924;2023-02-18T04:43:03;19.73;;;10.70;;
69401;SDS011;56589;51.992;5.924;2023-02-18T04:45:29;21.48;;;11.13;;
69401;SDS011;56589;51.992;5.924;2023-02-18T04:47:57;21.00;;;10.48;;
69401;SDS011;56589;51.992;5.924;2023-02-18T04:50:23;20.67;;;10.38;;
69401;SDS011;56589;51.992;5.924;2023-02-18T04:52:49;14.18;;;8.88;;
69401;SDS011;56589;51.992;5.924;2023-02-18T04:55:15;16.92;;;9.52;;
69401;SDS011;56589;51.992;5.924;2023-02-18T04:57:41;16.10;;;8.07;;
69401;SDS011;56589;51.992;5.924;2023-02-18T05:00:08;14.07;;;7.97;;
69401;SDS011;56589;51.992;5.924;2023-02-18T05:02:40;12.60;;;7.90;;
69401;SDS011;56589;51.992;5.924;2023-02-18T05:05:08;11.68;;;7.30;;
69401;SDS011;56589;51.992;5.924;2023-02-18T05:07:35;11.98;;;7.35;;
69401;SDS011;56589;51.992;5.924;2023-02-18T05:10:01;13.25;;;6.97;;
69401;SDS011;56589;51.992;5.924;2023-02-18T05:12:30;12.18;;;6.53;;
69401;SDS011;56589;51.992;5.924;2023-02-18T05:14:56;13.18;;;6.55;;
69401;SDS011;56589;51.992;5.924;2023-02-18T05:17:21;12.40;;;6.40;;
69401;SDS011;56589;51.992;5.924;2023-02-18T05:19:47;11.07;;;6.35;;
69401;SDS011;56589;51.992;5.924;2023-02-18T05:22:15;9.88;;;6.82;;
69401;SDS011;56589;51.992;5.924;2023-02-18T05:24:41;10.13;;;5.85;;
69401;SDS011;56589;51.992;5.924;2023-02-18T05:27:07;9.50;;;6.07;;
69401;SDS011;56589;51.992;5.924;2023-02-18T05:29:33;10.70;;;5.85;;
69401;SDS011;56589;51.992;5.924;2023-02-18T05:31:59;8.82;;;5.60;;
69401;SDS011;56589;51.992;5.924;2023-02-18T05:34:24;8.63;;;5.43;;
69401;SDS011;56589;51.992;5.924;2023-02-18T05:36:50;8.95;;;5.32;;
69401;SDS011;56589;51.992;5.924;2023-02-18T05:39:19;8.52;;;5.25;;
69401;SDS011;56589;51.992;5.924;2023-02-18T05:41:45;8.00;;;5.53;;
69401;SDS011;56589;51.992;5.924;2023-02-18T05:44:11;8.27;;;4.85;;
69401;SDS011;56589;51.992;5.924;2023-02-18T05:46:37;6.47;;;4.53;;
69401;SDS011;56589;51.992;5.924;2023-02-18T05:49:02;5.93;;;4.03;;
69401;SDS011;56589;51.992;5.924;2023-02-18T05:51:28;5.40;;;3.65;;
69401;SDS011;56589;51.992;5.924;2023-02-18T05:53:54;5.32;;;3.40;;
69401;SDS011;56589;51.992;5.924;2023-02-18T05:56:22;5.50;;;3.20;;
69401;SDS011;56589;51.992;5.924;2023-02-18T05:58:48;4.50;;;3.10;;
69401;SDS011;56589;51.992;5.924;2023-02-18T06:01:14;5.75;;;3.70;;
69401;SDS011;56589;51.992;5.924;2023-02-18T06:03:40;4.05;;;3.03;;
69401;SDS011;56589;51.992;5.924;2023-02-18T06:06:06;4.53;;;3.13;;
69401;SDS011;56589;51.992;5.924;2023-02-18T06:08:32;5.05;;;3.20;;
69401;SDS011;56589;51.992;5.924;2023-02-18T06:10:59;4.25;;;3.08;;
69401;SDS011;56589;51.992;5.924;2023-02-18T06:13:27;3.47;;;2.58;;
69401;SDS011;56589;51.992;5.924;2023-02-18T06:15:53;4.93;;;3.40;;
69401;SDS011;56589;51.992;5.924;2023-02-18T06:18:19;4.22;;;2.80;;
69401;SDS011;56589;51.992;5.924;2023-02-18T06:20:45;4.10;;;2.58;;
69401;SDS011;56589;51.992;5.924;2023-02-18T06:23:12;3.17;;;2.55;;
69401;SDS011;56589;51.992;5.924;2023-02-18T06:25:37;4.75;;;3.05;;
69401;SDS011;56589;51.992;5.924;2023-02-18T06:28:04;5.57;;;4.13;;
69401;SDS011;56589;51.992;5.924;2023-02-18T06:30:32;9.45;;;4.93;;
69401;SDS011;56589;51.992;5.924;2023-02-18T06:32:58;6.55;;;5.15;;
69401;SDS011;56589;51.992;5.924;2023-02-18T06:35:24;6.25;;;5.10;;
69401;SDS011;56589;51.992;5.924;2023-02-18T06:37:50;8.52;;;5.43;;
69401;SDS011;56589;51.992;5.924;2023-02-18T06:40:16;7.07;;;5.13;;
69401;SDS011;56589;51.992;5.924;2023-02-18T06:42:42;5.20;;;4.13;;
69401;SDS011;56589;51.992;5.924;2023-02-18T06:45:09;9.68;;;5.05;;
69401;SDS011;56589;51.992;5.924;2023-02-18T06:47:37;6.55;;;4.75;;
69401;SDS011;56589;51.992;5.924;2023-02-18T06:50:03;7.28;;;5.03;;
69401;SDS011;56589;51.992;5.924;2023-02-18T06:52:31;7.70;;;5.78;;
69401;SDS011;56589;51.992;5.924;2023-02-18T06:54:57;8.30;;;5.65;;
69401;SDS011;56589;51.992;5.924;2023-02-18T06:57:23;8.05;;;5.70;;
69401;SDS011;56589;51.992;5.924;2023-02-18T06:59:49;9.10;;;5.60;;
69401;SDS011;56589;51.992;5.924;2023-02-18T07:02:14;6.32;;;4.85;;
69401;SDS011;56589;51.992;5.924;2023-02-18T07:04:43;7.60;;;5.15;;
69401;SDS011;56589;51.992;5.924;2023-02-18T07:07:11;6.80;;;4.75;;
69401;SDS011;56589;51.992;5.924;2023-02-18T07:09:37;7.13;;;4.88;;
69401;SDS011;56589;51.992;5.924;2023-02-18T07:12:04;5.75;;;4.20;;
69401;SDS011;56589;51.992;5.924;2023-02-18T07:14:30;9.23;;;4.78;;
69401;SDS011;56589;51.992;5.924;2023-02-18T07:16:58;7.45;;;5.10;;
69401;SDS011;56589;51.992;5.924;2023-02-18T07:19:24;7.45;;;4.72;;
69401;SDS011;56589;51.992;5.924;2023-02-18T07:21:52;6.85;;;4.93;;
69401;SDS011;56589;51.992;5.924;2023-02-18T07:24:18;9.02;;;5.07;;
69401;SDS011;56589;51.992;5.924;2023-02-18T07:26:46;8.13;;;5.57;;
69401;SDS011;56589;51.992;5.924;2023-02-18T07:29:12;9.05;;;5.93;;
69401;SDS011;56589;51.992;5.924;2023-02-18T07:31:38;10.40;;;5.78;;
69401;SDS011;56589;51.992;5.924;2023-02-18T07:34:03;9.35;;;5.85;;
69401;SDS011;56589;51.992;5.924;2023-02-18T07:36:29;10.40;;;5.70;;
69401;SDS011;56589;51.992;5.924;2023-02-18T07:38:58;11.70;;;6.97;;
69401;SDS011;56589;51.992;5.924;2023-02-18T07:41:23;10.20;;;3.85;;
69401;SDS011;56589;51.992;5.924;2023-02-18T07:43:49;11.02;;;5.90;;
69401;SDS011;56589;51.992;5.924;2023-02-18T07:46:15;8.13;;;5.22;;
69401;SDS011;56589;51.992;5.924;2023-02-18T07:48:41;11.20;;;5.55;;
69401;SDS011;56589;51.992;5.924;2023-02-18T07:51:07;13.02;;;5.22;;
69401;SDS011;56589;51.992;5.924;2023-02-18T07:53:35;8.32;;;4.60;;
69401;SDS011;56589;51.992;5.924;2023-02-18T07:56:05;10.95;;;4.88;;
69401;SDS011;56589;51.992;5.924;2023-02-18T07:58:32;11.35;;;4.57;;
69401;SDS011;56589;51.992;5.924;2023-02-18T08:01:03;14.00;;;4.85;;
69401;SDS011;56589;51.992;5.924;2023-02-18T08:03:31;12.38;;;5.18;;
69401;SDS011;56589;51.992;5.924;2023-02-18T08:05:57;10.38;;;4.75;;
69401;SDS011;56589;51.992;5.924;2023-02-18T08:08:23;17.25;;;4.90;;
69401;SDS011;56589;51.992;5.924;2023-02-18T08:10:54;13.45;;;4.72;;
69401;SDS011;56589;51.992;5.924;2023-02-18T08:13:26;16.13;;;4.18;;
69401;SDS011;56589;51.992;5.924;2023-02-18T08:15:53;15.73;;;5.18;;
69401;SDS011;56589;51.992;5.924;2023-02-18T08:18:21;12.90;;;3.53;;
69401;SDS011;56589;51.992;5.924;2023-02-18T08:20:49;18.17;;;4.40;;
69401;SDS011;56589;51.992;5.924;2023-02-18T08:23:15;12.05;;;3.50;;
69401;SDS011;56589;51.992;5.924;2023-02-18T08:25:44;15.15;;;3.40;;
69401;SDS011;56589;51.992;5.924;2023-02-18T08:28:10;17.23;;;3.50;;
69401;SDS011;56589;51.992;5.924;2023-02-18T08:30:39;13.77;;;3.65;;
69401;SDS011;56589;51.992;5.924;2023-02-18T08:33:09;13.40;;;2.85;;
69401;SDS011;56589;51.992;5.924;2023-02-18T08:35:35;11.73;;;2.97;;
69401;SDS011;56589;51.992;5.924;2023-02-18T08:38:01;12.85;;;3.13;;
69401;SDS011;56589;51.992;5.924;2023-02-18T08:40:26;20.45;;;4.25;;
69401;SDS011;56589;51.992;5.924;2023-02-18T08:42:52;11.45;;;3.75;;
69401;SDS011;56589;51.992;5.924;2023-02-18T08:45:18;13.82;;;3.40;;
69401;SDS011;56589;51.992;5.924;2023-02-18T08:47:46;18.63;;;3.58;;
69401;SDS011;56589;51.992;5.924;2023-02-18T08:50:12;14.90;;;3.20;;
69401;SDS011;56589;51.992;5.924;2023-02-18T08:52:38;15.45;;;3.10;;
69401;SDS011;56589;51.992;5.924;2023-02-18T08:55:04;15.40;;;3.65;;
69401;SDS011;56589;51.992;5.924;2023-02-18T08:57:31;17.48;;;3.03;;
69401;SDS011;56589;51.992;5.924;2023-02-18T08:59:57;15.88;;;3.50;;
69401;SDS011;56589;51.992;5.924;2023-02-18T09:02:23;11.32;;;2.58;;
69401;SDS011;56589;51.992;5.924;2023-02-18T09:04:51;18.45;;;3.30;;
69401;SDS011;56589;51.992;5.924;2023-02-18T09:07:17;20.27;;;3.05;;
69401;SDS011;56589;51.992;5.924;2023-02-18T09:09:43;16.40;;;2.63;;
69401;SDS011;56589;51.992;5.924;2023-02-18T09:12:09;15.57;;;2.38;;
69401;SDS011;56589;51.992;5.924;2023-02-18T09:14:34;17.75;;;3.47;;
69401;SDS011;56589;51.992;5.924;2023-02-18T09:17:00;15.50;;;2.95;;
69401;SDS011;56589;51.992;5.924;2023-02-18T09:19:26;13.48;;;3.38;;
69401;SDS011;56589;51.992;5.924;2023-02-18T09:21:54;12.45;;;1.85;;
69401;SDS011;56589;51.992;5.924;2023-02-18T09:24:20;15.93;;;2.25;;
69401;SDS011;56589;51.992;5.924;2023-02-18T09:26:46;14.18;;;1.92;;
69401;SDS011;56589;51.992;5.924;2023-02-18T09:29:12;10.85;;;1.80;;
69401;SDS011;56589;51.992;5.924;2023-02-18T09:31:37;10.48;;;2.38;;
69401;SDS011;56589;51.992;5.924;2023-02-18T09:34:03;8.80;;;1.90;;
69401;SDS011;56589;51.992;5.924;2023-02-18T09:36:30;13.20;;;1.70;;
69401;SDS011;56589;51.992;5.924;2023-02-18T09:38:59;12.75;;;2.30;;
69401;SDS011;56589;51.992;5.924;2023-02-18T09:41:29;12.77;;;3.42;;
69401;SDS011;56589;51.992;5.924;2023-02-18T09:44:04;14.10;;;3.05;;
69401;SDS011;56589;51.992;5.924;2023-02-18T09:46:42;12.85;;;2.50;;
69401;SDS011;56589;51.992;5.924;2023-02-18T09:49:15;15.18;;;3.17;;
69401;SDS011;56589;51.992;5.924;2023-02-18T09:51:47;15.40;;;2.92;;
69401;SDS011;56589;51.992;5.924;2023-02-18T09:54:16;19.98;;;3.63;;
69401;SDS011;56589;51.992;5.924;2023-02-18T09:56:44;14.40;;;2.70;;
69401;SDS011;56589;51.992;5.924;2023-02-18T09:59:13;20.98;;;2.97;;
69401;SDS011;56589;51.992;5.924;2023-02-18T10:01:45;13.73;;;2.35;;
69401;SDS011;56589;51.992;5.924;2023-02-18T10:04:15;10.82;;;2.38;;
69401;SDS011;56589;51.992;5.924;2023-02-18T10:06:46;14.35;;;2.88;;
69401;SDS011;56589;51.992;5.924;2023-02-18T10:09:19;12.98;;;2.40;;
69401;SDS011;56589;51.992;5.924;2023-02-18T10:11:50;11.80;;;2.47;;
69401;SDS011;56589;51.992;5.924;2023-02-18T10:14:20;16.20;;;3.30;;
69401;SDS011;56589;51.992;5.924;2023-02-18T10:16:47;12.80;;;2.45;;
69401;SDS011;56589;51.992;5.924;2023-02-18T10:19:19;16.67;;;2.83;;
69401;SDS011;56589;51.992;5.924;2023-02-18T10:21:50;12.55;;;2.40;;
69401;SDS011;56589;51.992;5.924;2023-02-18T10:24:24;15.38;;;3.10;;
69401;SDS011;56589;51.992;5.924;2023-02-18T10:26:56;11.35;;;2.67;;
69401;SDS011;56589;51.992;5.924;2023-02-18T10:29:24;15.13;;;2.78;;
69401;SDS011;56589;51.992;5.924;2023-02-18T10:31:51;18.35;;;3.17;;
69401;SDS011;56589;51.992;5.924;2023-02-18T10:34:29;16.92;;;2.35;;
69401;SDS011;56589;51.992;5.924;2023-02-18T10:37:06;14.70;;;2.70;;
69401;SDS011;56589;51.992;5.924;2023-02-18T10:39:57;11.70;;;2.50;;
69401;SDS011;56589;51.992;5.924;2023-02-18T10:42:37;9.30;;;1.98;;
69401;SDS011;56589;51.992;5.924;2023-02-18T10:45:20;10.00;;;2.30;;
69401;SDS011;56589;51.992;5.924;2023-02-18T10:48:08;14.00;;;2.42;;
69401;SDS011;56589;51.992;5.924;2023-02-18T10:50:56;11.38;;;2.47;;
69401;SDS011;56589;51.992;5.924;2023-02-18T10:53:28;15.73;;;2.28;;
69401;SDS011;56589;51.992;5.924;2023-02-18T10:56:03;13.93;;;2.10;;
69401;SDS011;56589;51.992;5.924;2023-02-18T10:58:32;10.50;;;2.97;;
69401;SDS011;56589;51.992;5.924;2023-02-18T11:01:02;13.13;;;2.30;;
69401;SDS011;56589;51.992;5.924;2023-02-18T11:03:38;14.55;;;2.42;;
69401;SDS011;56589;51.992;5.924;2023-02-18T11:06:14;13.85;;;3.15;;
69401;SDS011;56589;51.992;5.924;2023-02-18T11:08:46;11.52;;;3.30;;
69401;SDS011;56589;51.992;5.924;2023-02-18T11:11:19;13.88;;;2.70;;
69401;SDS011;56589;51.992;5.924;2023-02-18T11:13:52;12.07;;;2.90;;
69401;SDS011;56589;51.992;5.924;2023-02-18T11:16:22;14.10;;;2.63;;
69401;SDS011;56589;51.992;5.924;2023-02-18T11:19:00;14.80;;;3.15;;
69401;SDS011;56589;51.992;5.924;2023-02-18T11:21:28;14.77;;;3.33;;
69401;SDS011;56589;51.992;5.924;2023-02-18T11:24:05;18.27;;;3.72;;
69401;SDS011;56589;51.992;5.924;2023-02-18T11:26:41;17.15;;;3.20;;
69401;SDS011;56589;51.992;5.924;2023-02-18T11:29:11;20.63;;;3.55;;
69401;SDS011;56589;51.992;5.924;2023-02-18T11:31:46;14.48;;;2.65;;
69401;SDS011;56589;51.992;5.924;2023-02-18T11:34:18;16.00;;;3.70;;
69401;SDS011;56589;51.992;5.924;2023-02-18T11:36:47;11.88;;;2.70;;
69401;SDS011;56589;51.992;5.924;2023-02-18T11:39:19;14.25;;;3.47;;
69401;SDS011;56589;51.992;5.924;2023-02-18T11:41:55;16.08;;;2.88;;
69401;SDS011;56589;51.992;5.924;2023-02-18T11:44:26;17.95;;;3.40;;
69401;SDS011;56589;51.992;5.924;2023-02-18T11:46:58;17.23;;;3.55;;
69401;SDS011;56589;51.992;5.924;2023-02-18T11:49:27;18.58;;;3.28;;
69401;SDS011;56589;51.992;5.924;2023-02-18T11:51:54;17.77;;;3.15;;
69401;SDS011;56589;51.992;5.924;2023-02-18T11:54:30;14.05;;;3.40;;
69401;SDS011;56589;51.992;5.924;2023-02-18T11:56:59;17.90;;;4.55;;
69401;SDS011;56589;51.992;5.924;2023-02-18T11:59:31;18.77;;;3.60;;
69401;SDS011;56589;51.992;5.924;2023-02-18T12:02:02;13.30;;;3.03;;
69401;SDS011;56589;51.992;5.924;2023-02-18T12:04:51;14.57;;;3.22;;
69401;SDS011;56589;51.992;5.924;2023-02-18T12:07:27;15.73;;;3.75;;
69401;SDS011;56589;51.992;5.924;2023-02-18T12:10:09;14.35;;;3.95;;
69401;SDS011;56589;51.992;5.924;2023-02-18T12:12:47;15.35;;;3.42;;
69401;SDS011;56589;51.992;5.924;2023-02-18T12:15:21;15.68;;;4.47;;
69401;SDS011;56589;51.992;5.924;2023-02-18T12:18:16;12.18;;;3.53;;
69401;SDS011;56589;51.992;5.924;2023-02-18T12:21:03;16.65;;;5.28;;
69401;SDS011;56589;51.992;5.924;2023-02-18T12:23:44;18.85;;;3.88;;
69401;SDS011;56589;51.992;5.924;2023-02-18T12:26:23;14.80;;;3.97;;
69401;SDS011;56589;51.992;5.924;2023-02-18T12:32:04;15.85;;;4.07;;
69401;SDS011;56589;51.992;5.924;2023-02-18T12:34:52;17.20;;;3.90;;
69401;SDS011;56589;51.992;5.924;2023-02-18T12:37:39;12.38;;;4.43;;
69401;SDS011;56589;51.992;5.924;2023-02-18T12:40:33;13.98;;;3.67;;
69401;SDS011;56589;51.992;5.924;2023-02-18T12:43:29;15.60;;;4.18;;
69401;SDS011;56589;51.992;5.924;2023-02-18T12:46:19;17.05;;;4.18;;
69401;SDS011;56589;51.992;5.924;2023-02-18T12:49:03;16.00;;;3.90;;
69401;SDS011;56589;51.992;5.924;2023-02-18T12:51:56;16.25;;;4.00;;
69401;SDS011;56589;51.992;5.924;2023-02-18T12:54:41;10.35;;;3.88;;
69401;SDS011;56589;51.992;5.924;2023-02-18T12:57:35;19.75;;;4.68;;
69401;SDS011;56589;51.992;5.924;2023-02-18T13:00:10;21.90;;;5.47;;
69401;SDS011;56589;51.992;5.924;2023-02-18T13:03:30;20.15;;;4.80;;
69401;SDS011;56589;51.992;5.924;2023-02-18T13:06:16;18.92;;;4.28;;
69401;SDS011;56589;51.992;5.924;2023-02-18T13:09:02;17.17;;;4.47;;
69401;SDS011;56589;51.992;5.924;2023-02-18T13:11:40;17.65;;;5.63;;
69401;SDS011;56589;51.992;5.924;2023-02-18T13:14:18;18.65;;;4.35;;
69401;SDS011;56589;51.992;5.924;2023-02-18T13:16:48;20.25;;;4.50;;
69401;SDS011;56589;51.992;5.924;2023-02-18T13:19:22;20.95;;;4.45;;
69401;SDS011;56589;51.992;5.924;2023-02-18T13:21:52;15.50;;;4.50;;
69401;SDS011;56589;51.992;5.924;2023-02-18T13:24:28;15.90;;;5.20;;
69401;SDS011;56589;51.992;5.924;2023-02-18T13:27:00;12.10;;;4.00;;
69401;SDS011;56589;51.992;5.924;2023-02-18T13:29:43;17.88;;;3.75;;
69401;SDS011;56589;51.992;5.924;2023-02-18T13:32:19;14.90;;;4.78;;
69401;SDS011;56589;51.992;5.924;2023-02-18T13:35:01;19.17;;;4.10;;
69401;SDS011;56589;51.992;5.924;2023-02-18T13:37:43;13.82;;;4.30;;
69401;SDS011;56589;51.992;5.924;2023-02-18T13:40:27;13.38;;;4.00;;
69401;SDS011;56589;51.992;5.924;2023-02-18T13:46:01;14.10;;;3.67;;
69401;SDS011;56589;51.992;5.924;2023-02-18T13:48:40;13.93;;;3.65;;
69401;SDS011;56589;51.992;5.924;2023-02-18T13:51:15;11.82;;;3.60;;
69401;SDS011;56589;51.992;5.924;2023-02-18T13:53:51;17.70;;;4.18;;
69401;SDS011;56589;51.992;5.924;2023-02-18T13:56:28;13.18;;;4.50;;
69401;SDS011;56589;51.992;5.924;2023-02-18T13:59:00;14.20;;;4.03;;
69401;SDS011;56589;51.992;5.924;2023-02-18T14:01:37;14.48;;;4.43;;
69401;SDS011;56589;51.992;5.924;2023-02-18T14:07:28;22.25;;;4.10;;
69401;SDS011;56589;51.992;5.924;2023-02-18T14:10:23;14.98;;;3.65;;
69401;SDS011;56589;51.992;5.924;2023-02-18T14:15:51;16.73;;;4.43;;
69401;SDS011;56589;51.992;5.924;2023-02-18T14:18:22;16.13;;;4.40;;
69401;SDS011;56589;51.992;5.924;2023-02-18T14:21:04;18.33;;;4.30;;
69401;SDS011;56589;51.992;5.924;2023-02-18T14:24:00;21.23;;;5.10;;
69401;SDS011;56589;51.992;5.924;2023-02-18T14:26:33;13.05;;;4.35;;
69401;SDS011;56589;51.992;5.924;2023-02-18T14:29:05;11.68;;;4.40;;
69401;SDS011;56589;51.992;5.924;2023-02-18T14:31:41;14.30;;;4.10;;
69401;SDS011;56589;51.992;5.924;2023-02-18T14:37:37;17.42;;;4.88;;
69401;SDS011;56589;51.992;5.924;2023-02-18T14:40:23;14.57;;;4.13;;
69401;SDS011;56589;51.992;5.924;2023-02-18T14:43:10;18.02;;;4.57;;
69401;SDS011;56589;51.992;5.924;2023-02-18T14:45:59;17.75;;;4.15;;
69401;SDS011;56589;51.992;5.924;2023-02-18T14:54:11;18.02;;;4.32;;
69401;SDS011;56589;51.992;5.924;2023-02-18T14:56:51;19.23;;;4.22;;
69401;SDS011;56589;51.992;5.924;2023-02-18T14:59:22;11.75;;;4.00;;
69401;SDS011;56589;51.992;5.924;2023-02-18T15:01:55;11.05;;;4.35;;
69401;SDS011;56589;51.992;5.924;2023-02-18T15:04:22;19.20;;;4.53;;
69401;SDS011;56589;51.992;5.924;2023-02-18T15:06:57;13.75;;;4.70;;
69401;SDS011;56589;51.992;5.924;2023-02-18T15:09:25;21.67;;;5.28;;
69401;SDS011;56589;51.992;5.924;2023-02-18T15:11:54;17.38;;;4.88;;
69401;SDS011;56589;51.992;5.924;2023-02-18T15:14:24;19.77;;;4.85;;
69401;SDS011;56589;51.992;5.924;2023-02-18T15:16:54;12.60;;;4.03;;
69401;SDS011;56589;51.992;5.924;2023-02-18T15:19:23;19.23;;;5.13;;
69401;SDS011;56589;51.992;5.924;2023-02-18T15:21:54;16.57;;;4.90;;
69401;SDS011;56589;51.992;5.924;2023-02-18T15:24:25;15.25;;;4.97;;
69401;SDS011;56589;51.992;5.924;2023-02-18T15:26:59;23.25;;;5.20;;
69401;SDS011;56589;51.992;5.924;2023-02-18T15:29:31;18.73;;;4.57;;
69401;SDS011;56589;51.992;5.924;2023-02-18T15:32:00;13.40;;;4.13;;
69401;SDS011;56589;51.992;5.924;2023-02-18T15:34:41;18.10;;;4.80;;